Darstellungsparameter: Aktuell verwendete Einstellungen:
Skalierung der Graphiken ... ?
xyx+y,   Skalierungsfaktor:      Skalierung: Modus: x, Faktor: 1
Darstellungszeitraum ... ?
Vom - - bis: - -   Zeitraum: 03.03.2008 - 09.03.2008
Min/Max/Avg-Anzeige ... ?
Zeige MMA aktuell
Zeige MMA Monat
Zeige MMA alles
Zeige --A aktuell
Zeige --A Monat
Zeige --A alles
Keine MMA-Anzeige
MMA:
Keine MMA-Graphiken
MMA-Basis: 03.03.2008 - 09.03.2008
Quicknavigation für Darstellung... ?
Tage:      1T, 2T, 3T, 5T -1T -2T -3T -5T +1T +2T +3T +5T
Wochen: 1W, 2W, 3W -1W -2W -3W +1W +2W +3W
Monate: 1M, 3M, 6M -1M -3M -6M +1M +3M +6M
Jahre:    1J, 3J, 5J, 10J -1J -3J -5J -10J +1J +3J +5J +10J
Nutze für die Darstellung ... ?
Originaldaten oder Mittelwerte auf ...
Stundenbasis Tagesbasis Wochenbasis
Monatsbasis Jahresbasis      Datenbasis: Original-Daten
Darstellen als:
Statistik (Auto) Statistik J:M      Darstellung:
Zur Graphik,    zurück zur Übersicht aller Sensoren.
 
Tabellarische Datenbersicht: ?
 
Sensor: Nr:Datum:Temp:Feuchte:Taupunkt:
Aussen-T/F 1 03-03-2008 00:04:02 10.4 C 65 % 4.11 C
2 03-03-2008 00:16:02 9.8 C 75 % 5.59 C
3 03-03-2008 00:28:02 9.5 C 79 % 6.05 C
4 03-03-2008 00:40:02 9.4 C 81 % 6.31 C
5 03-03-2008 00:52:02 9.3 C 80 % 6.03 C
6 03-03-2008 01:04:02 9.4 C 70 % 4.21 C
7 03-03-2008 01:16:02 9.6 C 58 % 1.75 C
8 03-03-2008 01:28:02 9.6 C 53 % 0.5 C
9 03-03-2008 01:40:03 9.4 C 53 % 0.32 C
10 03-03-2008 01:52:03 9.1 C 55 % 0.55 C
11 03-03-2008 02:04:03 9 C 55 % 0.46 C
12 03-03-2008 02:16:03 9 C 57 % 0.95 C
13 03-03-2008 02:28:03 9 C 58 % 1.19 C
14 03-03-2008 02:40:03 9 C 57 % 0.95 C
15 03-03-2008 02:52:03 9 C 56 % 0.71 C
16 03-03-2008 03:04:03 9 C 55 % 0.46 C
17 03-03-2008 03:16:03 9.1 C 55 % 0.55 C
18 03-03-2008 03:28:03 9 C 57 % 0.95 C
19 03-03-2008 03:40:03 8.9 C 59 % 1.34 C
20 03-03-2008 03:52:03 8.9 C 57 % 0.86 C
21 03-03-2008 04:04:03 9 C 56 % 0.71 C
22 03-03-2008 04:16:03 9 C 56 % 0.71 C
23 03-03-2008 04:28:03 9 C 56 % 0.71 C
24 03-03-2008 04:40:03 8.9 C 57 % 0.86 C
25 03-03-2008 04:52:03 8.9 C 58 % 1.1 C
Sensor: Nr:Datum:Temp:Feuchte:Taupunkt:
Aussen-T/F 26 03-03-2008 05:04:03 8.9 C 58 % 1.1 C
27 03-03-2008 05:16:03 8.9 C 59 % 1.34 C
28 03-03-2008 05:28:03 8.9 C 60 % 1.57 C
29 03-03-2008 05:40:04 8.7 C 64 % 2.28 C
30 03-03-2008 05:52:04 8.4 C 69 % 3.05 C
31 03-03-2008 06:04:04 8.3 C 70 % 3.16 C
32 03-03-2008 06:16:04 8.4 C 71 % 3.46 C
33 03-03-2008 06:28:04 8.4 C 70 % 3.26 C
34 03-03-2008 06:40:04 8.5 C 69 % 3.15 C
35 03-03-2008 06:52:04 8.5 C 69 % 3.15 C
36 03-03-2008 07:04:02 8.2 C 70 % 3.06 C
37 03-03-2008 07:16:02 8 C 71 % 3.07 C
38 03-03-2008 07:28:02 7.9 C 73 % 3.37 C
39 03-03-2008 07:40:02 7.8 C 75 % 3.65 C
40 03-03-2008 07:52:02 7.6 C 76 % 3.65 C
41 03-03-2008 08:04:02 7.6 C 77 % 3.83 C
42 03-03-2008 08:16:02 7.3 C 76 % 3.36 C
43 03-03-2008 08:28:02 7.3 C 77 % 3.54 C
44 03-03-2008 08:40:02 7.3 C 78 % 3.73 C
45 03-03-2008 08:52:02 7.3 C 78 % 3.73 C
46 03-03-2008 09:04:03 7.4 C 79 % 4 C
47 03-03-2008 09:16:02 7.2 C 77 % 3.45 C
48 03-03-2008 09:28:02 7.3 C 76 % 3.36 C
49 03-03-2008 09:40:02 7.6 C 72 % 2.88 C
50 03-03-2008 09:52:01 7.7 C 68 % 2.18 C
Sensor: Nr:Datum:Temp:Feuchte:Taupunkt:
Aussen-T/F 51 03-03-2008 10:04:02 7.5 C 67 % 1.78 C
52 03-03-2008 10:16:01 7 C 68 % 1.51 C
53 03-03-2008 10:28:01 6.6 C 72 % 1.92 C
54 03-03-2008 10:40:01 6.7 C 74 % 2.4 C
55 03-03-2008 10:52:01 6.7 C 74 % 2.4 C
56 03-03-2008 11:04:02 7.2 C 72 % 2.5 C
57 03-03-2008 11:16:02 7.4 C 66 % 1.48 C
58 03-03-2008 11:28:02 7.8 C 64 % 1.43 C
59 03-03-2008 11:40:01 7.8 C 61 % 0.76 C
60 03-03-2008 11:52:02 7.9 C 60 % 0.63 C
61 03-03-2008 12:04:01 8.5 C 57 % 0.48 C
62 03-03-2008 12:16:02 8.5 C 57 % 0.48 C
63 03-03-2008 12:28:02 8.4 C 58 % 0.63 C
64 03-03-2008 12:40:02 8.6 C 57 % 0.58 C
65 03-03-2008 12:52:02 8.6 C 53 % -0.42 C
66 03-03-2008 13:04:02 8.9 C 51 % -0.67 C
67 03-03-2008 13:16:02 8.7 C 51 % -0.86 C
68 03-03-2008 13:28:02 8.8 C 50 % -1.03 C
69 03-03-2008 13:40:02 8.9 C 49 % -1.22 C
70 03-03-2008 13:52:02 9 C 48 % -1.41 C
71 03-03-2008 14:04:01 9.3 C 39 % -3.92 C
72 03-03-2008 14:16:01 9.4 C 38 % -4.18 C
73 03-03-2008 14:28:01 9.5 C 35 % -5.18 C
74 03-03-2008 14:40:02 9.2 C 35 % -5.44 C
75 03-03-2008 14:52:02 9.2 C 32 % -6.61 C
Sensor: Nr:Datum:Temp:Feuchte:Taupunkt:
Aussen-T/F 76 03-03-2008 15:04:02 9.3 C 30 % -7.36 C
77 03-03-2008 15:16:02 9.5 C 25 % -9.52 C
78 03-03-2008 15:28:02 9.8 C 25 % -9.26 C
79 03-03-2008 15:40:03 9.7 C 21 % -11.54 C
80 03-03-2008 15:52:02 9.3 C 20 % -12.47 C
81 03-03-2008 16:04:02 9 C 26 % -9.45 C
82 03-03-2008 16:16:02 8.5 C 27 % -9.4 C
83 03-03-2008 16:28:02 9.1 C 20 % -12.64 C
84 03-03-2008 16:40:02 8.7 C 20 % -12.97 C
85 03-03-2008 16:52:02 9.5 C 20 % -12.31 C
86 03-03-2008 17:04:02 9 C 20 % -12.72 C
87 03-03-2008 17:16:02 8.8 C 20 % -12.89 C
88 03-03-2008 17:28:02 8.4 C 20 % -13.22 C
89 03-03-2008 17:40:02 8.5 C 20 % -13.14 C
90 03-03-2008 17:52:02 8.1 C 20 % -13.47 C
91 03-03-2008 18:04:02 7.6 C 20 % -13.89 C
92 03-03-2008 18:16:03 7.3 C 20 % -14.14 C
93 03-03-2008 18:28:03 7.1 C 20 % -14.3 C
94 03-03-2008 18:40:02 6.9 C 20 % -14.47 C
95 03-03-2008 18:52:02 6.5 C 20 % -14.8 C
96 03-03-2008 19:04:02 6.4 C 20 % -14.89 C
97 03-03-2008 19:16:02 6.3 C 20 % -14.97 C
98 03-03-2008 19:28:02 6.1 C 25 % -12.42 C
99 03-03-2008 19:40:02 5.9 C 26 % -12.1 C
100 03-03-2008 19:52:03 5.5 C 29 % -11.09 C
Sensor: Nr:Datum:Temp:Feuchte:Taupunkt:
Aussen-T/F 101 03-03-2008 20:04:02 5.1 C 32 % -10.21 C
102 03-03-2008 20:16:02 4.7 C 35 % -9.43 C
103 03-03-2008 20:28:02 4.5 C 36 % -9.25 C
104 03-03-2008 20:40:03 4.5 C 37 % -8.9 C
105 03-03-2008 20:52:02 4.2 C 37 % -9.17 C
106 03-03-2008 21:04:02 4.1 C 39 % -8.59 C
107 03-03-2008 21:16:02 3.8 C 41 % -8.22 C
108 03-03-2008 21:28:02 3.7 C 42 % -8 C
109 03-03-2008 21:40:02 3.7 C 41 % -8.31 C
110 03-03-2008 21:52:02 3.6 C 42 % -8.09 C
111 03-03-2008 22:04:02 3.4 C 43 % -7.97 C
112 03-03-2008 22:16:02 3.3 C 45 % -7.47 C
113 03-03-2008 22:28:02 3.3 C 45 % -7.47 C
114 03-03-2008 22:41:02 3.2 C 45 % -7.57 C
115 03-03-2008 22:53:02 3.1 C 46 % -7.37 C
116 03-03-2008 23:05:02 3.1 C 46 % -7.37 C
117 03-03-2008 23:17:02 2.9 C 47 % -7.28 C
118 03-03-2008 23:29:02 2.6 C 49 % -7.02 C
119 03-03-2008 23:41:02 2.4 C 50 % -6.94 C
120 03-03-2008 23:53:02 2.2 C 52 % -6.62 C
121 04-03-2008 00:05:02 2.1 C 53 % -6.46 C
122 04-03-2008 00:17:02 2 C 53 % -6.55 C
123 04-03-2008 00:29:02 2 C 54 % -6.31 C
124 04-03-2008 00:41:02 1.9 C 55 % -6.17 C
125 04-03-2008 00:53:02 1.8 C 56 % -6.02 C
Sensor: Nr:Datum:Temp:Feuchte:Taupunkt:
Aussen-T/F 126 04-03-2008 01:05:02 2 C 55 % -6.07 C
127 04-03-2008 01:17:02 2.3 C 54 % -6.03 C
128 04-03-2008 01:29:02 2.3 C 55 % -5.79 C
129 04-03-2008 01:41:02 2.2 C 55 % -5.89 C
130 04-03-2008 01:53:02 2.2 C 56 % -5.65 C
131 04-03-2008 02:05:02 2.3 C 56 % -5.56 C
132 04-03-2008 02:17:03 2.4 C 56 % -5.46 C
133 04-03-2008 02:29:03 2.5 C 56 % -5.37 C
134 04-03-2008 02:41:03 2.4 C 57 % -5.23 C
135 04-03-2008 02:53:03 2.3 C 58 % -5.1 C
136 04-03-2008 03:05:03 2.3 C 58 % -5.1 C
137 04-03-2008 03:17:03 2.5 C 60 % -4.46 C
138 04-03-2008 03:29:03 2.5 C 62 % -4.03 C
139 04-03-2008 03:41:03 2.5 C 65 % -3.4 C
140 04-03-2008 03:53:03 2.3 C 68 % -2.98 C
141 04-03-2008 04:05:03 2.2 C 70 % -2.69 C
142 04-03-2008 04:17:03 2 C 74 % -2.13 C
143 04-03-2008 04:29:03 2.2 C 76 % -1.58 C
144 04-03-2008 04:41:03 2 C 78 % -1.42 C
145 04-03-2008 04:53:03 1.9 C 80 % -1.18 C
146 04-03-2008 05:05:03 1.6 C 81 % -1.3 C
147 04-03-2008 05:17:03 1.5 C 82 % -1.23 C
148 04-03-2008 05:29:03 1.3 C 83 % -1.26 C
149 04-03-2008 05:41:03 1.2 C 84 % -1.2 C
150 04-03-2008 05:53:03 1.1 C 85 % -1.13 C
Sensor: Nr:Datum:Temp:Feuchte:Taupunkt:
Aussen-T/F 151 04-03-2008 06:05:03 0.7 C 86 % -1.37 C
152 04-03-2008 06:17:03 0.5 C 86 % -1.56 C
153 04-03-2008 06:29:04 0.5 C 87 % -1.41 C
154 04-03-2008 06:41:04 0.4 C 87 % -1.5 C
155 04-03-2008 06:53:04 0.3 C 88 % -1.45 C
156 04-03-2008 07:05:04 0.3 C 89 % -1.29 C
157 04-03-2008 07:17:02 0.3 C 89 % -1.29 C
158 04-03-2008 07:29:02 0.2 C 89 % -1.39 C
159 04-03-2008 07:41:02 0.3 C 90 % -1.14 C
160 04-03-2008 07:53:02 0.3 C 90 % -1.14 C
161 04-03-2008 08:05:02 0.3 C 90 % -1.14 C
162 04-03-2008 08:17:02 0.3 C 90 % -1.14 C
163 04-03-2008 08:29:02 0.3 C 90 % -1.14 C
164 04-03-2008 08:41:02 0.3 C 91 % -0.99 C
165 04-03-2008 08:53:01 0.4 C 91 % -0.89 C
166 04-03-2008 09:05:02 0.5 C 91 % -0.79 C
167 04-03-2008 09:17:02 0.5 C 90 % -0.95 C
168 04-03-2008 09:29:02 0.5 C 91 % -0.79 C
169 04-03-2008 09:41:01 0.6 C 90 % -0.85 C
170 04-03-2008 09:53:02 0.6 C 90 % -0.85 C
171 04-03-2008 10:05:02 0.7 C 90 % -0.75 C
172 04-03-2008 10:17:02 0.8 C 90 % -0.65 C
173 04-03-2008 10:29:02 1 C 90 % -0.45 C
174 04-03-2008 10:41:02 1.2 C 89 % -0.41 C
175 04-03-2008 10:53:02 1.5 C 89 % -0.11 C
Sensor: Nr:Datum:Temp:Feuchte:Taupunkt:
Aussen-T/F 176 04-03-2008 11:05:01 1.8 C 89 % 0.19 C
177 04-03-2008 11:17:01 1.9 C 89 % 0.28 C
178 04-03-2008 11:29:01 2.2 C 88 % 0.42 C
179 04-03-2008 11:41:02 2.8 C 89 % 1.17 C
180 04-03-2008 11:53:02 3.2 C 86 % 1.09 C
181 04-03-2008 12:05:03 3.3 C 80 % 0.19 C
182 04-03-2008 12:17:02 3.8 C 74 % -0.4 C
183 04-03-2008 12:29:03 4 C 69 % -1.16 C
184 04-03-2008 12:41:02 4.3 C 67 % -1.27 C
185 04-03-2008 12:53:02 4.4 C 64 % -1.8 C
186 04-03-2008 13:05:01 4.7 C 64 % -1.51 C
187 04-03-2008 13:17:01 4.8 C 63 % -1.63 C
188 04-03-2008 13:29:01 4.7 C 62 % -1.94 C
189 04-03-2008 13:41:02 5.3 C 63 % -1.16 C
190 04-03-2008 13:53:02 5 C 60 % -2.1 C
191 04-03-2008 14:05:03 5 C 60 % -2.1 C
192 04-03-2008 14:17:02 5.4 C 60 % -1.73 C
193 04-03-2008 14:29:02 5.4 C 59 % -1.95 C
194 04-03-2008 14:41:02 5 C 59 % -2.33 C
195 04-03-2008 14:53:01 5.3 C 59 % -2.05 C
196 04-03-2008 15:05:02 5.5 C 59 % -1.86 C
197 04-03-2008 15:17:02 6.1 C 57 % -1.76 C
198 04-03-2008 15:29:02 5.5 C 56 % -2.56 C
199 04-03-2008 15:41:01 5.2 C 58 % -2.37 C
200 04-03-2008 15:53:02 5.4 C 59 % -1.95 C
Sensor: Nr:Datum:Temp:Feuchte:Taupunkt:
Aussen-T/F 201 04-03-2008 16:05:01 5.7 C 55 % -2.62 C
202 04-03-2008 16:17:01 6 C 53 % -2.84 C
203 04-03-2008 16:29:01 6.2 C 52 % -2.91 C
204 04-03-2008 16:41:02 6.2 C 51 % -3.17 C
205 04-03-2008 16:53:02 5.5 C 55 % -2.81 C
206 04-03-2008 17:05:01 5.8 C 55 % -2.53 C
207 04-03-2008 17:17:01 5.3 C 56 % -2.75 C
208 04-03-2008 17:29:01 5.2 C 56 % -2.84 C
209 04-03-2008 17:41:02 4.9 C 59 % -2.42 C
210 04-03-2008 17:53:02 4.8 C 60 % -2.29 C
211 04-03-2008 18:05:02 4.6 C 60 % -2.48 C
212 04-03-2008 18:17:02 4.5 C 59 % -2.8 C
213 04-03-2008 18:29:02 4.3 C 59 % -2.99 C
214 04-03-2008 18:41:02 4.1 C 60 % -2.95 C
215 04-03-2008 18:53:02 3.9 C 60 % -3.14 C
216 04-03-2008 19:05:02 3.4 C 60 % -3.61 C
217 04-03-2008 19:17:02 3.1 C 64 % -3.03 C
218 04-03-2008 19:29:02 3 C 65 % -2.92 C
219 04-03-2008 19:41:02 3.6 C 61 % -3.2 C
220 04-03-2008 19:53:02 3.8 C 58 % -3.69 C
221 04-03-2008 20:05:02 4 C 57 % -3.73 C
222 04-03-2008 20:17:03 3.9 C 59 % -3.36 C
223 04-03-2008 20:29:03 3.7 C 58 % -3.78 C
224 04-03-2008 20:41:02 3.3 C 58 % -4.16 C
225 04-03-2008 20:53:02 3 C 58 % -4.44 C
Sensor: Nr:Datum:Temp:Feuchte:Taupunkt:
Aussen-T/F 226 04-03-2008 21:05:02 3 C 59 % -4.21 C
227 04-03-2008 21:17:01 3.5 C 54 % -4.91 C
228 04-03-2008 21:29:01 3.3 C 57 % -4.39 C
229 04-03-2008 21:42:02 3.1 C 61 % -3.67 C
230 04-03-2008 21:54:02 3 C 64 % -3.13 C
231 04-03-2008 22:06:02 2.5 C 68 % -2.79 C
232 04-03-2008 22:18:02 2 C 69 % -3.08 C
233 04-03-2008 22:30:02 1.7 C 72 % -2.79 C
234 04-03-2008 22:42:02 1.4 C 73 % -2.9 C
235 04-03-2008 22:54:03 1.5 C 75 % -2.44 C
236 04-03-2008 23:06:03 1.7 C 75 % -2.24 C
237 04-03-2008 23:18:03 1.5 C 74 % -2.62 C
238 04-03-2008 23:30:03 1.5 C 75 % -2.44 C
239 04-03-2008 23:42:03 1.7 C 74 % -2.42 C
240 04-03-2008 23:54:03 2 C 70 % -2.88 C
241 05-03-2008 00:06:03 1.9 C 71 % -2.79 C
242 05-03-2008 00:18:03 1.9 C 71 % -2.79 C
243 05-03-2008 00:30:03 1.7 C 72 % -2.79 C
244 05-03-2008 00:42:03 1.5 C 69 % -3.55 C
245 05-03-2008 00:54:03 1.5 C 67 % -3.95 C
246 05-03-2008 01:06:03 1.4 C 67 % -4.04 C
247 05-03-2008 01:18:03 1.3 C 68 % -3.94 C
248 05-03-2008 01:30:03 1.3 C 66 % -4.34 C
249 05-03-2008 01:42:03 1.2 C 67 % -4.23 C
250 05-03-2008 01:54:03 0.9 C 68 % -4.32 C
Sensor: Nr:Datum:Temp:Feuchte:Taupunkt:
Aussen-T/F 251 05-03-2008 02:06:03 0.7 C 69 % -4.32 C
252 05-03-2008 02:18:03 0.5 C 69 % -4.51 C
253 05-03-2008 02:30:03 0.4 C 68 % -4.8 C
254 05-03-2008 02:42:03 0.3 C 68 % -4.9 C
255 05-03-2008 02:54:04 0.1 C 67 % -5.28 C
256 05-03-2008 03:06:04 0.1 C 67 % -5.28 C
257 05-03-2008 03:18:04 0 C 67 % -5.38 C
258 05-03-2008 03:30:04 -0.2 C 69 % -5.19 C
259 05-03-2008 03:42:04 -0.4 C 69 % -5.38 C
260 05-03-2008 03:54:04 -0.5 C 71 % -5.1 C
261 05-03-2008 04:06:04 -0.5 C 72 % -4.92 C
262 05-03-2008 04:18:04 -0.4 C 71 % -5.01 C
263 05-03-2008 04:30:04 -0.4 C 71 % -5.01 C
264 05-03-2008 04:42:04 -0.6 C 71 % -5.2 C
265 05-03-2008 04:54:04 -0.6 C 73 % -4.83 C
266 05-03-2008 05:06:04 -0.5 C 74 % -4.55 C
267 05-03-2008 05:18:04 -0.3 C 74 % -4.36 C
268 05-03-2008 05:30:04 -0.4 C 73 % -4.64 C
269 05-03-2008 05:42:04 -0.4 C 73 % -4.64 C
270 05-03-2008 05:54:04 -0.7 C 74 % -4.75 C
271 05-03-2008 06:06:04 -0.7 C 74 % -4.75 C
272 05-03-2008 06:18:04 -0.5 C 73 % -4.73 C
273 05-03-2008 06:30:04 -0.9 C 73 % -5.12 C
274 05-03-2008 06:42:04 -0.9 C 74 % -4.94 C
275 05-03-2008 06:54:04 -0.8 C 74 % -4.84 C
Sensor: Nr:Datum:Temp:Feuchte:Taupunkt:
Aussen-T/F 276 05-03-2008 07:06:02 -0.8 C 73 % -5.02 C
277 05-03-2008 07:18:02 -1 C 74 % -5.04 C
278 05-03-2008 07:30:02 -0.9 C 74 % -4.94 C
279 05-03-2008 07:42:02 -0.5 C 73 % -4.73 C
280 05-03-2008 07:54:02 -0.4 C 71 % -5.01 C
281 05-03-2008 08:06:04 -0.2 C 70 % -5 C
282 05-03-2008 08:18:02 0 C 69 % -4.99 C
283 05-03-2008 08:30:02 0 C 68 % -5.18 C
284 05-03-2008 08:42:02 0 C 66 % -5.58 C
285 05-03-2008 08:54:02 -0.1 C 66 % -5.68 C
286 05-03-2008 09:06:03 0.5 C 66 % -5.1 C
287 05-03-2008 09:18:02 0.6 C 63 % -5.61 C
288 05-03-2008 09:30:02 0.9 C 62 % -5.54 C
289 05-03-2008 09:42:02 0.8 C 61 % -5.85 C
290 05-03-2008 09:54:01 0.6 C 62 % -5.82 C
291 05-03-2008 10:06:01 0.9 C 61 % -5.75 C
292 05-03-2008 10:18:02 1.4 C 58 % -5.94 C
293 05-03-2008 10:30:02 1.7 C 57 % -5.89 C
294 05-03-2008 10:42:02 2.2 C 55 % -5.89 C
295 05-03-2008 10:54:02 2.5 C 52 % -6.34 C
296 05-03-2008 11:06:02 3.1 C 49 % -6.56 C
297 05-03-2008 11:18:02 2.8 C 49 % -6.83 C
298 05-03-2008 11:30:02 2.5 C 50 % -6.85 C
299 05-03-2008 11:42:02 3.1 C 47 % -7.1 C
300 05-03-2008 11:54:02 3.2 C 43 % -8.15 C
Sensor: Nr:Datum:Temp:Feuchte:Taupunkt:
Aussen-T/F 301 05-03-2008 12:06:02 3 C 44 % -8.04 C
302 05-03-2008 12:18:01 3.8 C 42 % -7.91 C
303 05-03-2008 12:30:01 4.3 C 35 % -9.78 C
304 05-03-2008 12:42:01 3.5 C 41 % -8.49 C
305 05-03-2008 12:54:02 4.3 C 39 % -8.41 C
306 05-03-2008 13:06:02 4.6 C 34 % -9.88 C
307 05-03-2008 13:18:02 5.3 C 30 % -10.84 C
308 05-03-2008 13:30:02 4.3 C 28 % -12.57 C
309 05-03-2008 13:42:02 5.7 C 26 % -12.27 C
310 05-03-2008 13:54:02 3.8 C 42 % -7.91 C
311 05-03-2008 14:06:02 3.7 C 46 % -6.83 C
312 05-03-2008 14:18:01 4.8 C 39 % -7.96 C
313 05-03-2008 14:30:01 5.3 C 36 % -8.54 C
314 05-03-2008 14:42:02 6 C 30 % -10.23 C
315 05-03-2008 14:54:02 6.5 C 27 % -11.12 C
316 05-03-2008 15:06:01 4.9 C 33 % -9.99 C
317 05-03-2008 15:18:01 4.5 C 37 % -8.9 C
318 05-03-2008 15:30:01 6.1 C 32 % -9.33 C
319 05-03-2008 15:42:01 6.7 C 28 % -10.49 C
320 05-03-2008 15:54:02 5.4 C 33 % -9.55 C
321 05-03-2008 16:06:01 5.2 C 33 % -9.73 C
322 05-03-2008 16:18:02 5.5 C 31 % -10.25 C
323 05-03-2008 16:30:02 6.1 C 28 % -11.01 C
324 05-03-2008 16:42:02 6.9 C 30 % -9.45 C
325 05-03-2008 16:54:02 6.7 C 27 % -10.95 C
Sensor: Nr:Datum:Temp:Feuchte:Taupunkt:
Aussen-T/F 326 05-03-2008 17:06:02 6.3 C 25 % -12.25 C
327 05-03-2008 17:18:02 5.7 C 25 % -12.76 C
328 05-03-2008 17:30:03 6.1 C 26 % -11.93 C
329 05-03-2008 17:42:02 5.7 C 27 % -11.81 C
330 05-03-2008 17:54:02 5 C 30 % -11.1 C
331 05-03-2008 18:06:02 4.4 C 32 % -10.82 C
332 05-03-2008 18:18:02 3.8 C 41 % -8.22 C
333 05-03-2008 18:30:02 3.2 C 43 % -8.15 C
334 05-03-2008 18:42:03 2.7 C 47 % -7.46 C
335 05-03-2008 18:54:02 2.3 C 47 % -7.83 C
336 05-03-2008 19:06:02 2 C 48 % -7.83 C
337 05-03-2008 19:18:02 1.7 C 50 % -7.59 C
338 05-03-2008 19:30:02 1.5 C 52 % -7.27 C
339 05-03-2008 19:42:01 1.3 C 54 % -6.96 C
340 05-03-2008 19:54:02 1.2 C 55 % -6.82 C
341 05-03-2008 20:06:02 0.9 C 57 % -6.64 C
342 05-03-2008 20:18:02 0.7 C 58 % -6.6 C
343 05-03-2008 20:30:02 0.6 C 57 % -6.92 C
344 05-03-2008 20:42:02 0.5 C 57 % -7.01 C
345 05-03-2008 20:54:02 0.4 C 58 % -6.88 C
346 05-03-2008 21:06:01 0.3 C 57 % -7.2 C
347 05-03-2008 21:18:02 0.1 C 58 % -7.16 C
348 05-03-2008 21:30:02 0 C 60 % -6.82 C
349 05-03-2008 21:42:01 0 C 60 % -6.82 C
350 05-03-2008 21:54:02 -0.2 C 61 % -6.8 C
Sensor: Nr:Datum:Temp:Feuchte:Taupunkt:
Aussen-T/F 351 05-03-2008 22:07:02 -0.2 C 61 % -6.8 C
352 05-03-2008 22:19:02 -0.3 C 62 % -6.68 C
353 05-03-2008 22:31:02 -0.5 C 62 % -6.87 C
354 05-03-2008 22:43:02 -0.7 C 62 % -7.06 C
355 05-03-2008 22:55:02 -0.8 C 63 % -6.95 C
356 05-03-2008 23:07:02 -0.9 C 64 % -6.84 C
357 05-03-2008 23:19:02 -1 C 64 % -6.94 C
358 05-03-2008 23:31:02 -1.1 C 64 % -7.03 C
359 05-03-2008 23:43:02 -1.1 C 65 % -6.83 C
360 05-03-2008 23:55:02 -1.2 C 66 % -6.73 C
361 06-03-2008 00:07:02 -1.1 C 65 % -6.83 C
362 06-03-2008 00:19:02 -1.3 C 66 % -6.82 C
363 06-03-2008 00:31:02 -1.4 C 66 % -6.92 C
364 06-03-2008 00:43:03 -1.3 C 66 % -6.82 C
365 06-03-2008 00:55:03 -1.3 C 67 % -6.63 C
366 06-03-2008 01:07:03 -1.3 C 67 % -6.63 C
367 06-03-2008 01:19:03 -1.3 C 67 % -6.63 C
368 06-03-2008 01:31:03 -1.2 C 66 % -6.73 C
369 06-03-2008 01:43:03 -1.2 C 66 % -6.73 C
370 06-03-2008 01:55:03 -1.2 C 66 % -6.73 C
371 06-03-2008 02:07:03 -1.2 C 65 % -6.93 C
372 06-03-2008 02:19:03 -1.1 C 65 % -6.83 C
373 06-03-2008 02:31:03 -1.1 C 65 % -6.83 C
374 06-03-2008 02:43:03 -1.2 C 65 % -6.93 C
375 06-03-2008 02:55:03 -1.3 C 65 % -7.02 C
Sensor: Nr:Datum:Temp:Feuchte:Taupunkt:
Aussen-T/F 376 06-03-2008 03:07:03 -1.3 C 66 % -6.82 C
377 06-03-2008 03:19:03 -1.3 C 65 % -7.02 C
378 06-03-2008 03:31:03 -1.3 C 65 % -7.02 C
379 06-03-2008 03:43:03 -1.3 C 65 % -7.02 C
380 06-03-2008 03:55:03 -1.4 C 65 % -7.12 C
381 06-03-2008 04:07:03 -1.3 C 65 % -7.02 C
382 06-03-2008 04:19:03 -1.4 C 65 % -7.12 C
383 06-03-2008 04:31:03 -1.2 C 64 % -7.13 C
384 06-03-2008 04:43:03 -1.2 C 64 % -7.13 C
385 06-03-2008 04:55:04 -1.5 C 64 % -7.41 C
386 06-03-2008 05:07:04 -1.4 C 64 % -7.32 C
387 06-03-2008 05:19:04 -1.5 C 63 % -7.62 C
388 06-03-2008 05:31:04 -1.3 C 63 % -7.43 C
389 06-03-2008 05:43:04 -1 C 60 % -7.77 C
390 06-03-2008 05:55:04 -0.5 C 56 % -8.19 C
391 06-03-2008 06:07:04 -0.2 C 54 % -8.37 C
392 06-03-2008 06:19:04 0.3 C 52 % -8.38 C
393 06-03-2008 06:31:04 0.6 C 50 % -8.6 C
394 06-03-2008 06:43:04 0.8 C 50 % -8.42 C
395 06-03-2008 06:55:04 0.8 C 50 % -8.42 C
396 06-03-2008 07:07:02 0.9 C 51 % -8.07 C
397 06-03-2008 07:19:02 0.9 C 51 % -8.07 C
398 06-03-2008 07:31:02 0.8 C 52 % -7.92 C
399 06-03-2008 07:43:02 0.8 C 51 % -8.16 C
400 06-03-2008 07:55:02 0.9 C 50 % -8.33 C
Sensor: Nr:Datum:Temp:Feuchte:Taupunkt:
Aussen-T/F 401 06-03-2008 08:07:02 1 C 49 % -8.49 C
402 06-03-2008 08:19:02 1.1 C 49 % -8.4 C
403 06-03-2008 08:31:03 1.1 C 49 % -8.4 C
404 06-03-2008 08:43:03 1.3 C 48 % -8.48 C
405 06-03-2008 08:55:02 1.5 C 48 % -8.29 C
406 06-03-2008 09:07:02 1.5 C 48 % -8.29 C
407 06-03-2008 09:19:01 1.7 C 48 % -8.11 C
408 06-03-2008 09:31:02 1.8 C 47 % -8.29 C
409 06-03-2008 09:43:02 2 C 46 % -8.38 C
410 06-03-2008 09:55:02 2.1 C 46 % -8.29 C
411 06-03-2008 10:07:01 2.2 C 46 % -8.2 C
412 06-03-2008 10:19:01 2.4 C 46 % -8.01 C
413 06-03-2008 10:31:02 2.6 C 46 % -7.83 C
414 06-03-2008 10:43:02 2.8 C 45 % -7.93 C
415 06-03-2008 10:55:02 3 C 44 % -8.04 C
416 06-03-2008 11:07:02 3.2 C 44 % -7.85 C
417 06-03-2008 11:19:02 3.5 C 43 % -7.88 C
418 06-03-2008 11:31:02 4 C 42 % -7.73 C
419 06-03-2008 11:43:02 4 C 41 % -8.04 C
420 06-03-2008 11:55:01 4 C 41 % -8.04 C
421 06-03-2008 12:07:01 4.4 C 41 % -7.68 C
422 06-03-2008 12:19:02 4.5 C 40 % -7.9 C
423 06-03-2008 12:31:01 4.3 C 41 % -7.77 C
424 06-03-2008 12:43:01 4.2 C 42 % -7.55 C
425 06-03-2008 12:55:02 4.3 C 42 % -7.46 C
Sensor: Nr:Datum:Temp:Feuchte:Taupunkt:
Aussen-T/F 426 06-03-2008 13:07:01 4.6 C 41 % -7.49 C
427 06-03-2008 13:19:02 4.8 C 40 % -7.63 C
428 06-03-2008 13:31:02 4.8 C 41 % -7.31 C
429 06-03-2008 13:43:03 5.2 C 40 % -7.27 C
430 06-03-2008 13:55:02 5.2 C 39 % -7.6 C
431 06-03-2008 14:07:02 5.4 C 40 % -7.09 C
432 06-03-2008 14:19:02 5.4 C 40 % -7.09 C
433 06-03-2008 14:31:02 5.6 C 40 % -6.91 C
434 06-03-2008 14:43:02 5.5 C 40 % -7 C
435 06-03-2008 14:55:02 5.8 C 40 % -6.73 C
436 06-03-2008 15:07:02 5.7 C 40 % -6.82 C
437 06-03-2008 15:19:01 6.1 C 40 % -6.46 C
438 06-03-2008 15:31:02 5.9 C 40 % -6.64 C
439 06-03-2008 15:43:02 6 C 41 % -6.23 C
440 06-03-2008 15:55:01 6.1 C 40 % -6.46 C
441 06-03-2008 16:07:02 6.1 C 40 % -6.46 C
442 06-03-2008 16:19:02 6.2 C 41 % -6.05 C
443 06-03-2008 16:31:01 6.2 C 41 % -6.05 C
444 06-03-2008 16:43:01 6.3 C 41 % -5.96 C
445 06-03-2008 16:55:02 6.3 C 41 % -5.96 C
446 06-03-2008 17:07:01 6.2 C 41 % -6.05 C
447 06-03-2008 17:19:02 6.1 C 42 % -5.83 C
448 06-03-2008 17:31:02 6.1 C 43 % -5.52 C
449 06-03-2008 17:43:02 5.9 C 45 % -5.1 C
450 06-03-2008 17:55:02 5.7 C 45 % -5.29 C
Sensor: Nr:Datum:Temp:Feuchte:Taupunkt:
Aussen-T/F 451 06-03-2008 18:07:02 5.7 C 45 % -5.29 C
452 06-03-2008 18:19:02 5.6 C 46 % -5.09 C
453 06-03-2008 18:31:02 5.4 C 47 % -4.99 C
454 06-03-2008 18:43:02 5.3 C 47 % -5.08 C
455 06-03-2008 18:55:02 5.3 C 48 % -4.8 C
456 06-03-2008 19:07:02 5.3 C 48 % -4.8 C
457 06-03-2008 19:19:02 5.4 C 47 % -4.99 C
458 06-03-2008 19:31:02 5.4 C 48 % -4.71 C
459 06-03-2008 19:43:02 5.4 C 50 % -4.17 C
460 06-03-2008 19:55:02 5.3 C 51 % -4 C
461 06-03-2008 20:07:01 5.2 C 50 % -4.35 C
462 06-03-2008 20:19:02 5.3 C 49 % -4.53 C
463 06-03-2008 20:31:02 5.3 C 50 % -4.26 C
464 06-03-2008 20:43:02 5.2 C 51 % -4.09 C
465 06-03-2008 20:55:02 5.1 C 52 % -3.93 C
466 06-03-2008 21:07:02 5.2 C 51 % -4.09 C
467 06-03-2008 21:19:02 5.2 C 52 % -3.83 C
468 06-03-2008 21:31:03 5.1 C 52 % -3.93 C
469 06-03-2008 21:43:03 5.2 C 52 % -3.83 C
470 06-03-2008 21:56:02 5.2 C 53 % -3.58 C
471 06-03-2008 22:08:02 5.3 C 52 % -3.74 C
472 06-03-2008 22:20:02 5.2 C 53 % -3.58 C
473 06-03-2008 22:32:02 5.2 C 53 % -3.58 C
474 06-03-2008 22:44:02 5.1 C 53 % -3.67 C
475 06-03-2008 22:56:02 5.1 C 52 % -3.93 C
Sensor: Nr:Datum:Temp:Feuchte:Taupunkt:
Aussen-T/F 476 06-03-2008 23:08:02 5.1 C 53 % -3.67 C
477 06-03-2008 23:20:03 5.1 C 53 % -3.67 C
478 06-03-2008 23:32:03 5.1 C 53 % -3.67 C
479 06-03-2008 23:44:03 5 C 54 % -3.52 C
480 06-03-2008 23:56:03 5.1 C 54 % -3.42 C
481 07-03-2008 00:08:03 5 C 55 % -3.27 C
482 07-03-2008 00:20:03 5 C 54 % -3.52 C
483 07-03-2008 00:32:03 5 C 57 % -2.79 C
484 07-03-2008 00:44:03 5 C 56 % -3.03 C
485 07-03-2008 00:56:03 4.9 C 58 % -2.65 C
486 07-03-2008 01:08:03 5 C 57 % -2.79 C
487 07-03-2008 01:20:03 5 C 57 % -2.79 C
488 07-03-2008 01:32:03 4.9 C 59 % -2.42 C
489 07-03-2008 01:44:03 4.9 C 59 % -2.42 C
490 07-03-2008 01:56:03 4.9 C 58 % -2.65 C
491 07-03-2008 02:08:03 4.8 C 57 % -2.98 C
492 07-03-2008 02:20:03 4.8 C 58 % -2.75 C
493 07-03-2008 02:32:03 4.8 C 58 % -2.75 C
494 07-03-2008 02:44:03 4.8 C 59 % -2.52 C
495 07-03-2008 02:56:03 4.8 C 59 % -2.52 C
496 07-03-2008 03:08:03 4.8 C 59 % -2.52 C
497 07-03-2008 03:20:04 4.8 C 60 % -2.29 C
498 07-03-2008 03:32:04 4.8 C 60 % -2.29 C
499 07-03-2008 03:44:04 4.8 C 60 % -2.29 C
500 07-03-2008 03:56:04 4.8 C 60 % -2.29 C
Sensor: Nr:Datum:Temp:Feuchte:Taupunkt:
Aussen-T/F 501 07-03-2008 04:08:04 4.8 C 60 % -2.29 C
502 07-03-2008 04:20:04 4.8 C 61 % -2.07 C
503 07-03-2008 04:32:04 4.8 C 62 % -1.85 C
504 07-03-2008 04:44:04 4.7 C 63 % -1.73 C
505 07-03-2008 04:56:04 4.5 C 65 % -1.49 C
506 07-03-2008 05:08:04 4.4 C 68 % -0.98 C
507 07-03-2008 05:20:04 4.3 C 71 % -0.48 C
508 07-03-2008 05:32:04 4.2 C 73 % -0.2 C
509 07-03-2008 05:44:04 4.3 C 73 % -0.1 C
510 07-03-2008 05:56:04 4.4 C 73 % 0 C
511 07-03-2008 06:08:04 4.2 C 74 % -0.01 C
512 07-03-2008 06:20:04 3.9 C 75 % -0.12 C
513 07-03-2008 06:32:04 3.7 C 77 % 0.05 C
514 07-03-2008 06:44:04 3.4 C 78 % -0.06 C
515 07-03-2008 06:56:04 3.4 C 79 % 0.11 C
516 07-03-2008 07:08:03 3.3 C 79 % 0.02 C
517 07-03-2008 07:20:03 3 C 79 % -0.28 C
518 07-03-2008 07:32:02 2.9 C 81 % -0.03 C
519 07-03-2008 07:44:02 2.7 C 81 % -0.23 C
520 07-03-2008 07:56:01 2.8 C 83 % 0.21 C
521 07-03-2008 08:08:02 3 C 82 % 0.24 C
522 07-03-2008 08:20:02 3.2 C 83 % 0.6 C
523 07-03-2008 08:32:01 3.7 C 84 % 1.25 C
524 07-03-2008 08:44:01 4.4 C 83 % 1.77 C
525 07-03-2008 08:56:01 5 C 81 % 2.02 C
Sensor: Nr:Datum:Temp:Feuchte:Taupunkt:
Aussen-T/F 526 07-03-2008 09:08:02 5.4 C 76 % 1.52 C
527 07-03-2008 09:20:02 5.8 C 73 % 1.34 C
528 07-03-2008 09:32:02 6.2 C 69 % 0.95 C
529 07-03-2008 09:44:02 6.3 C 66 % 0.43 C
530 07-03-2008 09:56:02 6.4 C 65 % 0.31 C
531 07-03-2008 10:08:02 6.9 C 65 % 0.79 C
532 07-03-2008 10:20:02 7 C 62 % 0.23 C
533 07-03-2008 10:32:02 7.4 C 62 % 0.61 C
534 07-03-2008 10:44:02 7.4 C 60 % 0.16 C
535 07-03-2008 10:56:02 7.6 C 60 % 0.35 C
536 07-03-2008 11:08:02 7.8 C 60 % 0.53 C
537 07-03-2008 11:20:01 7.7 C 59 % 0.21 C
538 07-03-2008 11:32:01 7.9 C 59 % 0.4 C
539 07-03-2008 11:44:01 8.1 C 58 % 0.35 C
540 07-03-2008 11:56:01 8.4 C 57 % 0.39 C
541 07-03-2008 12:08:02 8.5 C 56 % 0.24 C
542 07-03-2008 12:20:02 8.4 C 56 % 0.15 C
543 07-03-2008 12:32:01 8.3 C 56 % 0.05 C
544 07-03-2008 12:44:01 8.5 C 56 % 0.24 C
545 07-03-2008 12:56:01 8.6 C 56 % 0.33 C
546 07-03-2008 13:08:02 8.8 C 55 % 0.27 C
547 07-03-2008 13:20:02 9.6 C 52 % 0.24 C
548 07-03-2008 13:32:02 10.5 C 49 % 0.25 C
549 07-03-2008 13:44:02 10.5 C 47 % -0.32 C
550 07-03-2008 13:56:02 10.5 C 47 % -0.32 C
Sensor: Nr:Datum:Temp:Feuchte:Taupunkt:
Aussen-T/F 551 07-03-2008 14:08:02 10.7 C 47 % -0.14 C
552 07-03-2008 14:20:02 10.7 C 46 % -0.43 C
553 07-03-2008 14:32:02 11 C 46 % -0.16 C
554 07-03-2008 14:44:02 10.9 C 45 % -0.55 C
555 07-03-2008 14:56:01 10.8 C 46 % -0.34 C
556 07-03-2008 15:08:01 11.6 C 45 % 0.09 C
557 07-03-2008 15:20:02 11.8 C 45 % 0.27 C
558 07-03-2008 15:32:01 11.1 C 45 % -0.37 C
559 07-03-2008 15:44:01 10.6 C 47 % -0.23 C
560 07-03-2008 15:56:02 10.3 C 48 % -0.21 C
561 07-03-2008 16:08:02 10.1 C 50 % 0.16 C
562 07-03-2008 16:20:02 9.9 C 51 % 0.25 C
563 07-03-2008 16:32:03 9.8 C 52 % 0.43 C
564 07-03-2008 16:44:03 9.5 C 52 % 0.15 C
565 07-03-2008 16:56:03 9.2 C 53 % 0.13 C
566 07-03-2008 17:08:02 9.3 C 54 % 0.48 C
567 07-03-2008 17:20:02 9.4 C 54 % 0.58 C
568 07-03-2008 17:32:03 9.5 C 54 % 0.67 C
569 07-03-2008 17:44:04 9.4 C 55 % 0.83 C
570 07-03-2008 17:56:02 9.3 C 56 % 0.99 C
571 07-03-2008 18:08:01 9.2 C 57 % 1.14 C
572 07-03-2008 18:20:01 9 C 58 % 1.19 C
573 07-03-2008 18:32:01 8.8 C 60 % 1.48 C
574 07-03-2008 18:44:01 8.6 C 61 % 1.52 C
575 07-03-2008 18:56:02 8.5 C 61 % 1.42 C
Sensor: Nr:Datum:Temp:Feuchte:Taupunkt:
Aussen-T/F 576 07-03-2008 19:08:01 8.4 C 61 % 1.33 C
577 07-03-2008 19:20:02 8.4 C 60 % 1.1 C
578 07-03-2008 19:32:02 8.4 C 59 % 0.87 C
579 07-03-2008 19:44:02 8.4 C 55 % -0.1 C
580 07-03-2008 19:56:02 8.2 C 57 % 0.2 C
581 07-03-2008 20:08:02 7.9 C 60 % 0.63 C
582 07-03-2008 20:20:03 7.7 C 63 % 1.11 C
583 07-03-2008 20:32:02 7.7 C 64 % 1.33 C
584 07-03-2008 20:44:03 7.7 C 63 % 1.11 C
585 07-03-2008 20:56:02 7.6 C 63 % 1.02 C
586 07-03-2008 21:08:02 7.6 C 63 % 1.02 C
587 07-03-2008 21:20:02 7.5 C 63 % 0.92 C
588 07-03-2008 21:32:02 7.5 C 62 % 0.7 C
589 07-03-2008 21:44:02 7.5 C 62 % 0.7 C
590 07-03-2008 21:56:02 7.4 C 62 % 0.61 C
591 07-03-2008 22:09:02 7.4 C 63 % 0.83 C
592 07-03-2008 22:21:02 7.4 C 63 % 0.83 C
593 07-03-2008 22:33:03 7.3 C 62 % 0.51 C
594 07-03-2008 22:45:03 7.2 C 63 % 0.64 C
595 07-03-2008 22:57:03 7.1 C 64 % 0.76 C
596 07-03-2008 23:09:03 7.1 C 64 % 0.76 C
597 07-03-2008 23:21:03 7 C 64 % 0.67 C
598 07-03-2008 23:33:03 7.1 C 63 % 0.55 C
599 07-03-2008 23:45:03 7.1 C 62 % 0.33 C
600 07-03-2008 23:57:03 7.1 C 62 % 0.33 C
Sensor: Nr:Datum:Temp:Feuchte:Taupunkt:
Aussen-T/F 601 08-03-2008 00:09:03 7 C 62 % 0.23 C
602 08-03-2008 00:21:03 7.1 C 62 % 0.33 C
603 08-03-2008 00:33:03 7 C 63 % 0.45 C
604 08-03-2008 00:45:03 6.9 C 65 % 0.79 C
605 08-03-2008 00:57:03 6.8 C 66 % 0.9 C
606 08-03-2008 01:09:03 6.7 C 68 % 1.22 C
607 08-03-2008 01:21:03 6.7 C 69 % 1.43 C
608 08-03-2008 01:33:03 6.7 C 69 % 1.43 C
609 08-03-2008 01:45:03 6.7 C 69 % 1.43 C
610 08-03-2008 01:57:03 6.7 C 68 % 1.22 C
611 08-03-2008 02:09:03 6.7 C 68 % 1.22 C
612 08-03-2008 02:21:04 6.7 C 69 % 1.43 C
613 08-03-2008 02:33:04 6.4 C 71 % 1.54 C
614 08-03-2008 02:45:04 6.2 C 74 % 1.92 C
615 08-03-2008 02:57:04 6.1 C 75 % 2.01 C
616 08-03-2008 03:09:04 6.1 C 76 % 2.2 C
617 08-03-2008 03:21:04 6 C 77 % 2.28 C
618 08-03-2008 03:33:04 5.9 C 79 % 2.54 C
619 08-03-2008 03:45:04 5.9 C 80 % 2.72 C
620 08-03-2008 03:57:04 5.9 C 80 % 2.72 C
621 08-03-2008 04:09:04 5.9 C 80 % 2.72 C
622 08-03-2008 04:21:04 5.8 C 80 % 2.62 C
623 08-03-2008 04:33:04 5.7 C 81 % 2.7 C
624 08-03-2008 04:45:04 5.7 C 82 % 2.87 C
625 08-03-2008 04:57:04 5.7 C 81 % 2.7 C
Sensor: Nr:Datum:Temp:Feuchte:Taupunkt:
Aussen-T/F 626 08-03-2008 05:09:04 5.7 C 81 % 2.7 C
627 08-03-2008 05:21:04 5.5 C 81 % 2.51 C
628 08-03-2008 05:33:04 5.3 C 81 % 2.31 C
629 08-03-2008 05:45:04 5.2 C 82 % 2.39 C
630 08-03-2008 05:57:04 4.9 C 82 % 2.09 C
631 08-03-2008 06:09:04 4.6 C 82 % 1.8 C
632 08-03-2008 06:21:05 4.4 C 82 % 1.6 C
633 08-03-2008 06:33:05 4.2 C 82 % 1.41 C
634 08-03-2008 06:45:05 4.2 C 83 % 1.58 C
635 08-03-2008 06:57:05 3.9 C 84 % 1.45 C
636 08-03-2008 07:09:05 4.2 C 84 % 1.74 C
637 08-03-2008 07:21:05 4.1 C 85 % 1.81 C
638 08-03-2008 07:33:05 4.1 C 86 % 1.97 C
639 08-03-2008 07:45:05 4.1 C 86 % 1.97 C
640 08-03-2008 07:57:05 4.4 C 87 % 2.43 C
641 08-03-2008 08:09:05 4.4 C 86 % 2.27 C
642 08-03-2008 08:21:05 4.3 C 86 % 2.17 C
643 08-03-2008 08:33:05 4 C 85 % 1.71 C
644 08-03-2008 08:45:05 4 C 87 % 2.04 C
645 08-03-2008 08:57:05 4.1 C 88 % 2.3 C
646 08-03-2008 09:09:05 4.4 C 88 % 2.59 C
647 08-03-2008 09:21:05 4.5 C 87 % 2.53 C
648 08-03-2008 09:33:05 4.8 C 86 % 2.66 C
649 08-03-2008 09:45:02 5.2 C 81 % 2.21 C
650 08-03-2008 09:57:02 5.6 C 76 % 1.71 C
Sensor: Nr:Datum:Temp:Feuchte:Taupunkt:
Aussen-T/F 651 08-03-2008 10:09:02 6 C 68 % 0.55 C
652 08-03-2008 10:21:02 6.4 C 62 % -0.34 C
653 08-03-2008 10:33:02 6.8 C 54 % -1.84 C
654 08-03-2008 10:45:01 6.9 C 54 % -1.75 C
655 08-03-2008 10:57:01 7.3 C 49 % -2.69 C
656 08-03-2008 11:09:02 7.4 C 49 % -2.6 C
657 08-03-2008 11:21:01 7.6 C 45 % -3.55 C
658 08-03-2008 11:33:01 8.1 C 40 % -4.66 C
659 08-03-2008 11:45:02 8.2 C 38 % -5.25 C
660 08-03-2008 11:57:02 8.6 C 38 % -4.89 C
661 08-03-2008 12:09:03 8.8 C 37 % -5.07 C
662 08-03-2008 12:21:02 9.1 C 37 % -4.8 C
663 08-03-2008 12:33:02 9.1 C 38 % -4.45 C
664 08-03-2008 12:45:01 9.4 C 37 % -4.53 C
665 08-03-2008 12:57:01 9.7 C 37 % -4.26 C
666 08-03-2008 13:09:01 10 C 35 % -4.73 C
667 08-03-2008 13:21:01 10.3 C 34 % -4.85 C
668 08-03-2008 13:33:01 10.9 C 31 % -5.54 C
669 08-03-2008 13:45:02 11 C 31 % -5.45 C
670 08-03-2008 13:57:02 11.2 C 31 % -5.28 C
671 08-03-2008 14:09:02 11.3 C 32 % -4.77 C
672 08-03-2008 14:21:02 11.1 C 32 % -4.95 C
673 08-03-2008 14:33:01 11.1 C 32 % -4.95 C
674 08-03-2008 14:45:01 10.6 C 35 % -4.2 C
675 08-03-2008 14:57:01 10.3 C 35 % -4.47 C
Sensor: Nr:Datum:Temp:Feuchte:Taupunkt:
Aussen-T/F 676 08-03-2008 15:09:02 10.7 C 35 % -4.11 C
677 08-03-2008 15:21:01 11.2 C 33 % -4.45 C
678 08-03-2008 15:33:01 10.8 C 35 % -4.03 C
679 08-03-2008 15:45:01 11.2 C 34 % -4.06 C
680 08-03-2008 15:57:01 11.3 C 33 % -4.37 C
681 08-03-2008 16:09:01 10.9 C 32 % -5.12 C
682 08-03-2008 16:21:02 10.6 C 33 % -4.98 C
683 08-03-2008 16:33:01 10.4 C 34 % -4.76 C
684 08-03-2008 16:45:02 10.4 C 34 % -4.76 C
685 08-03-2008 16:57:02 10.1 C 35 % -4.65 C
686 08-03-2008 17:09:01 9.9 C 36 % -4.45 C
687 08-03-2008 17:21:02 9.7 C 35 % -5 C
688 08-03-2008 17:33:02 9.7 C 35 % -5 C
689 08-03-2008 17:45:02 9.6 C 35 % -5.09 C
690 08-03-2008 17:57:02 9.5 C 36 % -4.8 C
691 08-03-2008 18:09:02 8.9 C 40 % -3.95 C
692 08-03-2008 18:21:02 8.3 C 42 % -3.84 C
693 08-03-2008 18:33:02 7.6 C 46 % -3.26 C
694 08-03-2008 18:45:01 7.5 C 45 % -3.65 C
695 08-03-2008 18:57:01 7.4 C 44 % -4.04 C
696 08-03-2008 19:09:02 7.3 C 44 % -4.13 C
697 08-03-2008 19:21:02 7.1 C 44 % -4.31 C
698 08-03-2008 19:33:01 6.9 C 45 % -4.19 C
699 08-03-2008 19:45:02 6.8 C 45 % -4.28 C
700 08-03-2008 19:57:02 6.7 C 47 % -3.8 C
Sensor: Nr:Datum:Temp:Feuchte:Taupunkt:
Aussen-T/F 701 08-03-2008 20:09:02 6.2 C 49 % -3.7 C
702 08-03-2008 20:21:02 6.1 C 50 % -3.52 C
703 08-03-2008 20:33:01 6 C 50 % -3.62 C
704 08-03-2008 20:45:02 6 C 50 % -3.62 C
705 08-03-2008 20:57:02 5.8 C 52 % -3.28 C
706 08-03-2008 21:09:02 5.5 C 54 % -3.05 C
707 08-03-2008 21:21:02 5.6 C 52 % -3.46 C
708 08-03-2008 21:33:02 5.4 C 53 % -3.39 C
709 08-03-2008 21:45:03 5.4 C 53 % -3.39 C
710 08-03-2008 21:57:03 5.2 C 55 % -3.09 C
711 08-03-2008 22:09:02 5 C 55 % -3.27 C
712 08-03-2008 22:21:02 4.8 C 56 % -3.22 C
713 08-03-2008 22:34:03 4.6 C 57 % -3.17 C
714 08-03-2008 22:46:03 4.5 C 58 % -3.03 C
715 08-03-2008 22:58:03 4.5 C 59 % -2.8 C
716 08-03-2008 23:10:03 4.5 C 59 % -2.8 C
717 08-03-2008 23:22:04 4.5 C 60 % -2.57 C
718 08-03-2008 23:34:04 4.3 C 61 % -2.54 C
719 08-03-2008 23:46:04 4.4 C 62 % -2.23 C
720 08-03-2008 23:58:04 4.5 C 63 % -1.92 C
721 09-03-2008 00:10:04 4.4 C 63 % -2.01 C
722 09-03-2008 00:22:04 4.4 C 63 % -2.01 C
723 09-03-2008 00:34:04 4.1 C 64 % -2.08 C
724 09-03-2008 00:46:04 4 C 65 % -1.97 C
725 09-03-2008 00:58:04 3.8 C 67 % -1.75 C
Sensor: Nr:Datum:Temp:Feuchte:Taupunkt:
Aussen-T/F 726 09-03-2008 01:10:04 4 C 67 % -1.56 C
727 09-03-2008 01:22:04 4.1 C 67 % -1.46 C
728 09-03-2008 01:34:04 4.2 C 68 % -1.17 C
729 09-03-2008 01:46:04 4.2 C 67 % -1.37 C
730 09-03-2008 01:58:04 4 C 68 % -1.36 C
731 09-03-2008 02:10:04 4.1 C 70 % -0.87 C
732 09-03-2008 02:22:04 4.6 C 71 % -0.19 C
733 09-03-2008 02:34:04 4.8 C 70 % -0.2 C
734 09-03-2008 02:46:04 5 C 69 % -0.2 C
735 09-03-2008 02:58:04 5.3 C 66 % -0.52 C
736 09-03-2008 03:10:05 5.5 C 64 % -0.75 C
737 09-03-2008 03:22:05 5.7 C 63 % -0.78 C
738 09-03-2008 03:34:05 5.7 C 62 % -1 C
739 09-03-2008 03:46:05 5.8 C 61 % -1.13 C
740 09-03-2008 03:58:05 5.9 C 59 % -1.48 C
741 09-03-2008 04:10:05 5.9 C 59 % -1.48 C
742 09-03-2008 04:22:05 5.9 C 59 % -1.48 C
743 09-03-2008 04:34:05 5.8 C 60 % -1.35 C
744 09-03-2008 04:46:05 5.8 C 60 % -1.35 C
745 09-03-2008 04:58:05 5.8 C 60 % -1.35 C
746 09-03-2008 05:10:05 5.7 C 60 % -1.44 C
747 09-03-2008 05:22:05 5.5 C 60 % -1.63 C
748 09-03-2008 05:34:05 5.4 C 60 % -1.73 C
749 09-03-2008 05:46:05 5.3 C 61 % -1.6 C
750 09-03-2008 05:58:05 5.2 C 62 % -1.47 C
Sensor: Nr:Datum:Temp:Feuchte:Taupunkt:
Aussen-T/F 751 09-03-2008 06:10:05 5.2 C 62 % -1.47 C
752 09-03-2008 06:22:05 5.2 C 63 % -1.25 C
753 09-03-2008 06:34:05 5.2 C 63 % -1.25 C
754 09-03-2008 06:46:05 5.4 C 62 % -1.28 C
755 09-03-2008 06:58:05 5.5 C 61 % -1.41 C
756 09-03-2008 07:10:06 5.6 C 61 % -1.31 C
757 09-03-2008 07:22:06 5.8 C 60 % -1.35 C
758 09-03-2008 07:34:06 6 C 58 % -1.62 C
759 09-03-2008 07:46:06 6.1 C 58 % -1.53 C
760 09-03-2008 07:58:06 6.2 C 57 % -1.67 C
761 09-03-2008 08:10:06 6.5 C 57 % -1.39 C
762 09-03-2008 08:22:06 6.7 C 56 % -1.44 C
763 09-03-2008 08:34:06 6.8 C 55 % -1.59 C
764 09-03-2008 08:46:01 7 C 54 % -1.66 C
765 09-03-2008 08:58:01 7.2 C 53 % -1.72 C
766 09-03-2008 09:10:02 7.7 C 51 % -1.78 C
767 09-03-2008 09:22:02 8 C 49 % -2.05 C
768 09-03-2008 09:34:01 7.9 C 50 % -1.86 C
769 09-03-2008 09:46:03 7.8 C 50 % -1.96 C
770 09-03-2008 09:58:03 8 C 49 % -2.05 C
771 09-03-2008 10:10:02 8.1 C 48 % -2.23 C
772 09-03-2008 10:22:02 8.4 C 48 % -1.96 C
773 09-03-2008 10:34:02 9 C 46 % -1.98 C
774 09-03-2008 10:46:02 9.3 C 44 % -2.31 C
775 09-03-2008 10:58:02 10.1 C 42 % -2.21 C
Sensor: Nr:Datum:Temp:Feuchte:Taupunkt:
Aussen-T/F 776 09-03-2008 11:10:03 10 C 41 % -2.63 C
777 09-03-2008 11:22:02 9.9 C 42 % -2.39 C
778 09-03-2008 11:34:02 10.1 C 42 % -2.21 C
779 09-03-2008 11:46:02 10 C 42 % -2.3 C
780 09-03-2008 11:58:02 9.9 C 43 % -2.08 C
781 09-03-2008 12:10:02 10 C 42 % -2.3 C
782 09-03-2008 12:22:03 9.8 C 43 % -2.17 C
783 09-03-2008 12:34:02 9.8 C 43 % -2.17 C
784 09-03-2008 12:46:02 9.9 C 43 % -2.08 C
785 09-03-2008 12:58:02 9.8 C 43 % -2.17 C
786 09-03-2008 13:10:01 10.3 C 41 % -2.36 C
787 09-03-2008 13:22:02 10.1 C 41 % -2.54 C
788 09-03-2008 13:34:02 10.1 C 41 % -2.54 C
789 09-03-2008 13:46:02 10.1 C 41 % -2.54 C
790 09-03-2008 13:58:02 10 C 41 % -2.63 C
791 09-03-2008 14:10:02 10 C 41 % -2.63 C
792 09-03-2008 14:22:02 10.2 C 41 % -2.45 C
793 09-03-2008 14:34:02 10.5 C 41 % -2.18 C
794 09-03-2008 14:46:02 10.6 C 39 % -2.76 C
795 09-03-2008 14:58:02 10.9 C 37 % -3.2 C
796 09-03-2008 15:10:01 11.2 C 35 % -3.67 C
797 09-03-2008 15:22:01 11.2 C 35 % -3.67 C
798 09-03-2008 15:34:02 11.3 C 34 % -3.97 C
799 09-03-2008 15:46:03 11.4 C 34 % -3.88 C
800 09-03-2008 15:58:03 11.1 C 33 % -4.54 C
Sensor: Nr:Datum:Temp:Feuchte:Taupunkt:
Aussen-T/F 801 09-03-2008 16:10:03 10.8 C 35 % -4.03 C
802 09-03-2008 16:22:02 10.9 C 35 % -3.94 C
803 09-03-2008 16:34:02 10.8 C 35 % -4.03 C
804 09-03-2008 16:46:02 10.6 C 35 % -4.2 C
805 09-03-2008 16:58:03 10.5 C 36 % -3.92 C
806 09-03-2008 17:10:01 10.4 C 37 % -3.64 C
807 09-03-2008 17:22:02 10.3 C 37 % -3.73 C
808 09-03-2008 17:34:02 10.2 C 37 % -3.82 C
809 09-03-2008 17:46:02 10.1 C 39 % -3.21 C
810 09-03-2008 17:58:02 10 C 38 % -3.64 C
811 09-03-2008 18:10:02 10 C 38 % -3.64 C
812 09-03-2008 18:22:02 10 C 38 % -3.64 C
813 09-03-2008 18:34:02 9.8 C 39 % -3.48 C
814 09-03-2008 18:46:02 9.6 C 40 % -3.32 C
815 09-03-2008 18:58:02 9.4 C 40 % -3.5 C
816 09-03-2008 19:10:02 9.3 C 40 % -3.59 C
817 09-03-2008 19:22:02 9.4 C 41 % -3.17 C
818 09-03-2008 19:34:02 9.1 C 42 % -3.12 C
819 09-03-2008 19:46:02 9.1 C 42 % -3.12 C
820 09-03-2008 19:58:02 9.1 C 42 % -3.12 C
821 09-03-2008 20:10:02 9.1 C 43 % -2.8 C
822 09-03-2008 20:22:02 9.1 C 42 % -3.12 C
823 09-03-2008 20:34:02 9.1 C 42 % -3.12 C
824 09-03-2008 20:46:02 9.1 C 42 % -3.12 C
825 09-03-2008 20:58:02 9.2 C 41 % -3.35 C
Sensor: Nr:Datum:Temp:Feuchte:Taupunkt:
Aussen-T/F 826 09-03-2008 21:10:02 9.3 C 42 % -2.93 C
827 09-03-2008 21:22:02 9.4 C 41 % -3.17 C
828 09-03-2008 21:34:02 9.7 C 41 % -2.9 C
829 09-03-2008 21:46:02 9.7 C 41 % -2.9 C
830 09-03-2008 21:58:02 9.6 C 43 % -2.35 C
831 09-03-2008 22:10:03 9.6 C 45 % -1.73 C
832 09-03-2008 22:23:02 9.5 C 46 % -1.53 C
833 09-03-2008 22:35:02 9.5 C 46 % -1.53 C
834 09-03-2008 22:47:02 9.5 C 47 % -1.23 C
835 09-03-2008 22:59:02 9.3 C 48 % -1.13 C
836 09-03-2008 23:11:02 9.1 C 48 % -1.31 C
837 09-03-2008 23:23:02 9.1 C 50 % -0.76 C
838 09-03-2008 23:35:02 9.1 C 50 % -0.76 C
839 09-03-2008 23:47:02 8.9 C 51 % -0.67 C
840 09-03-2008 23:59:02 8.9 C 51 % -0.67 C

Legende:
   Min
   Max


Maximal/Minimal-Werte vom 03.03.2008 - 09.03.2008

Sensor Min Max Avg
Temp
(Aussen-T/F)
-1.5 °C
06-03-2008  04:55:04
11.8 °C
07-03-2008  15:20:02
5.26 °C
Feuchte
(Aussen-T/F)
20 %
03-03-2008  15:52:02
91 %
04-03-2008  08:41:02
56.52 %
Taupunkt
(Aussen-T/F)
-14.97 C
03-03-2008  19:16:02
6.31 C
03-03-2008  00:40:02
-3.24 C

Die Daten stammen von einer Davis Vantage Pro 2 Wetter-Station und werden unter Linux mit der Software wview2wettercgi und aufbereitet. Alle Angaben erfolgen ohne Gewähr für ihre Vollständigkeit oder Richtigkeit.
Kontakt: Rainer Krienke krienke@uni-koblenz.de . Meine Webseiten an der Uni Koblenz oder privat.
Version: $Revision: 0.78 $